Galvin, WA

10:44 AM PST on February 11, 2016 (GMT -0800)
Centralia | | Change Station
CLOSE
Current Station
Personal Weather Station
Location: Centralia, WA
Elevation: 167 ft
Nearby Weather Stations

Elev 167 ft 46.73 °N, 122.99 °W | Updated 13 minutes ago

Mostly Cloudy
Mostly Cloudy
50.0 °F
Feels Like 50.0 °F
N
1.7
Wind Variable Wind from East

Today
High -- | Low -- °F
--% Chance of Precip.
Yesterday
High -- | Low -- °F
Precip. -- in
Pressure 30.14 in
Visibility 6.0 miles
Clouds Few 500 ft
Mostly Cloudy 6500 ft
Dew Point 50 °F
Humidity 99%
Rainfall 0.05 in
Snow Depth Not available.
7:22 AM 5:30 PM
Waxing Crescent, 13% visible
METAR KCLS 111835Z AUTO 05004KT 6SM BR FEW005 BKN065 10/10 A3014 RMK AO2
Pressure 30.14 in
Visibility 6.0 miles
Clouds Few 500 ft
Mostly Cloudy 6500 ft
Dew Point 50 °F
Humidity 99%
Rainfall 0.05 in
Snow Depth Not available.
7:22 AM 5:30 PM
Waxing Crescent, 13% visible
METAR KCLS 111835Z AUTO 05004KT 6SM BR FEW005 BKN065 10/10 A3014 RMK AO2

10-Day Weather Forecast

Almanac

Astronomy

Feb. 11, 2016 Rise Set
Actual Time
Civil Twilight
Nautical Twilight
Astronomical Twilight
Moon
Length of Visible Light
Length of Day
Tomorrow will be .
, % of the Moon is Illuminated

Today's Extremes

State Highs State Lows

Community

WunderPhotos

Upload Photos

1,892,125 photos uploaded!

WunderBlog® & News

Nearby

Air Quality

  Air Quality AQ Index Pollutant
Not available.

Snow Depth

Station Depth Elevation

Earthquake Activity

City Distance Mag. Time & Date
Minimum magnitude displayed is 2.5.

Coastal Water Temperatures

Place Temperature

Stations

Nearby Weather Stations

Station Location Temp. Windchill Dew Point Humidity Wind Precip. Elev Updated Type
                   

Watches & Warnings

There are currently no watches in effect.